Time;durP1;ratioP1;P1;durP2;ratioP2;P2;SDS_P1;SDS_P2;PMS_P1;PMS_P2;Temp;Humidity;BMP_temperature;BMP_pressure;BME280_temperature;BME280_humidity;BME280_pressure;Samples;Min_cycle;Max_cycle;Signal;HPM_P1;HPM_P2
2024/04/05 00:01:55;;;;;;;69.53;11.98;;;;;;;10.73;100.00;97882.09;4966844;28;20129;-61
2024/04/05 00:04:20;;;;;;;62.60;11.93;;;;;;;10.16;100.00;97878.84;4966716;28;20443;-61
2024/04/05 00:06:45;;;;;;;49.33;10.40;;;;;;;10.51;100.00;97879.63;4968131;28;20487;-59
2024/04/05 00:09:11;;;;;;;125.68;15.10;;;;;;;10.49;100.00;97868.34;4966518;28;20141;-60
2024/04/05 00:11:36;;;;;;;62.80;11.45;;;;;;;10.26;100.00;97866.69;4965752;28;20328;-58
2024/04/05 00:14:02;;;;;;;82.93;12.90;;;;;;;10.19;100.00;97872.78;4966315;28;20413;-59
2024/04/05 00:16:28;;;;;;;70.22;11.70;;;;;;;10.09;100.00;97874.56;4968194;28;20065;-59
2024/04/05 00:18:54;;;;;;;63.33;11.45;;;;;;;9.90;100.00;97874.59;4969244;28;20023;-62
2024/04/05 00:21:20;;;;;;;64.93;11.38;;;;;;;9.94;100.00;97873.72;4965344;28;20213;-58
2024/04/05 00:23:45;;;;;;;68.65;12.13;;;;;;;9.30;100.00;97876.41;4967483;28;20026;-58
2024/04/05 00:26:11;;;;;;;101.95;13.60;;;;;;;9.50;100.00;97884.19;4963708;28;20086;-60
2024/04/05 00:28:36;;;;;;;54.67;10.73;;;;;;;9.74;100.00;97882.44;4967585;28;20054;-60
2024/04/05 00:31:03;;;;;;;85.40;13.75;;;;;;;9.67;100.00;97888.50;4965721;28;20043;-60
2024/04/05 00:33:29;;;;;;;63.78;12.32;;;;;;;9.64;100.00;97883.31;4968090;28;20050;-62
2024/04/05 00:35:56;;;;;;;59.75;11.35;;;;;;;9.73;100.00;97888.47;4966834;28;20475;-59
2024/04/05 00:38:25;;;;;;;78.43;12.20;;;;;;;9.83;100.00;97901.47;4964853;28;20031;-59
2024/04/05 00:40:51;;;;;;;85.75;12.20;;;;;;;9.94;100.00;97896.25;4973455;28;20042;-60
2024/04/05 00:43:17;;;;;;;114.10;14.68;;;;;;;9.85;100.00;97891.94;4966120;28;20553;-60
2024/04/05 00:45:46;;;;;;;69.22;11.57;;;;;;;9.83;100.00;97884.13;4964790;28;20039;-59
2024/04/05 00:48:12;;;;;;;108.75;14.23;;;;;;;9.94;100.00;97889.31;4966369;28;20627;-60
2024/04/05 00:50:39;;;;;;;65.70;11.18;;;;;;;10.04;100.00;97892.75;4964084;28;20062;-60
2024/04/05 00:53:06;;;;;;;95.22;13.30;;;;;;;9.79;100.00;97891.97;4967286;28;20557;-59
2024/04/05 00:55:33;;;;;;;65.15;10.40;;;;;;;10.07;100.00;97897.97;4966082;28;20049;-62
2024/04/05 00:58:00;;;;;;;57.15;11.20;;;;;;;10.18;100.00;97897.03;4966737;28;20122;-61
2024/04/05 01:00:30;;;;;;;70.85;11.43;;;;;;;10.24;100.00;97897.88;4961539;28;20779;-62
2024/04/05 01:02:56;;;;;;;53.55;10.85;;;;;;;10.09;100.00;97897.97;4964869;28;20553;-60
2024/04/05 01:05:21;;;;;;;62.03;10.77;;;;;;;10.31;100.00;97892.69;4965157;28;20030;-61
2024/04/05 01:07:52;;;;;;;73.65;11.85;;;;;;;10.26;100.00;97893.56;4965341;28;20073;-60
2024/04/05 01:10:19;;;;;;;109.88;14.02;;;;;;;10.37;100.00;97900.44;4964409;28;20030;-61
2024/04/05 01:12:45;;;;;;;56.58;10.57;;;;;;;10.28;100.00;97901.34;4966031;28;20671;-60
2024/04/05 01:15:11;;;;;;;125.97;14.80;;;;;;;10.19;100.00;97889.25;4965023;28;20049;-59
2024/04/05 01:17:36;;;;;;;61.45;10.63;;;;;;;10.41;100.00;97896.97;4967315;28;20064;-58
2024/04/05 01:20:03;;;;;;;58.38;11.35;;;;;;;10.11;100.00;97896.19;4964041;28;20206;-59
2024/04/05 01:22:39;;;;;;;72.50;12.43;;;;;;;10.24;100.00;97900.50;4967143;28;20121;-60
2024/04/05 01:25:05;;;;;;;60.78;11.95;;;;;;;10.26;100.00;97893.56;4964205;28;20018;-62
2024/04/05 01:27:30;;;;;;;58.88;11.32;;;;;;;10.33;100.00;97894.41;4966324;28;20367;-61
2024/04/05 01:29:55;;;;;;;61.30;12.60;;;;;;;10.12;100.00;97885.81;4966337;28;20069;-61
2024/04/05 01:32:21;;;;;;;101.90;14.13;;;;;;;10.32;100.00;97884.84;4963395;28;20097;-59
2024/04/05 01:34:46;;;;;;;61.05;12.13;;;;;;;9.96;100.00;97887.59;4967861;28;20224;-59
2024/04/05 01:37:11;;;;;;;97.57;13.85;;;;;;;10.14;100.00;97883.22;4964209;28;20099;-60
2024/04/05 01:39:37;;;;;;;70.63;12.02;;;;;;;10.13;100.00;97887.53;4967136;28;20019;-60
2024/04/05 01:42:02;;;;;;;73.88;12.95;;;;;;;10.12;100.00;97875.41;4965493;28;20111;-59
2024/04/05 01:44:27;;;;;;;65.38;12.23;;;;;;;9.69;100.00;97876.38;4966139;28;20469;-60
2024/04/05 01:46:53;;;;;;;52.03;11.40;;;;;;;9.83;100.00;97878.09;4964857;28;20065;-60
2024/04/05 01:49:18;;;;;;;90.55;13.18;;;;;;;9.85;100.00;97882.44;4965731;28;20058;-61
2024/04/05 01:51:43;;;;;;;64.93;11.77;;;;;;;9.64;100.00;97879.00;4967255;28;20414;-62
2024/04/05 01:54:09;;;;;;;124.90;14.32;;;;;;;9.83;100.00;97878.09;4964479;28;20026;-62
2024/04/05 01:56:34;;;;;;;57.50;10.38;;;;;;;10.09;100.00;97877.16;4965785;28;20034;-59
2024/04/05 01:58:59;;;;;;;78.03;11.98;;;;;;;9.77;100.00;97877.22;4965450;28;20028;-61
2024/04/05 02:01:25;;;;;;;75.88;11.95;;;;;;;9.64;100.00;97879.00;4964454;28;20046;-61
2024/04/05 02:03:51;;;;;;;54.45;9.80;;;;;;;9.83;100.00;97870.31;4965764;28;20419;-61
2024/04/05 02:06:17;;;;;;;81.55;12.73;;;;;;;10.18;100.00;97865.84;4965248;28;20038;-60
2024/04/05 02:08:42;;;;;;;67.55;11.90;;;;;;;10.06;100.00;97870.22;4964794;28;20023;-59
2024/04/05 02:11:08;;;;;;;96.30;14.52;;;;;;;10.31;100.00;97877.09;4963947;28;20038;-61
2024/04/05 02:13:33;;;;;;;57.88;11.48;;;;;;;10.28;100.00;97877.94;4968592;28;20066;-60
2024/04/05 02:15:59;;;;;;;81.78;12.32;;;;;;;10.29;100.00;97864.94;4967615;28;20044;-61
2024/04/05 02:18:24;;;;;;;106.30;14.35;;;;;;;10.51;100.00;97859.66;4968901;28;20035;-59
2024/04/05 02:20:57;;;;;;;71.07;12.05;;;;;;;10.54;100.00;97853.59;4968558;28;20113;-60
2024/04/05 02:23:22;;;;;;;121.35;15.75;;;;;;;10.12;100.00;97849.44;4968533;28;20265;-59
2024/04/05 02:25:47;;;;;;;64.45;11.07;;;;;;;10.26;100.00;97851.97;4966360;28;20532;-59
2024/04/05 02:28:12;;;;;;;104.70;14.82;;;;;;;10.36;100.00;97857.13;4965174;28;20441;-59
2024/04/05 02:30:38;;;;;;;85.85;12.98;;;;;;;10.32;100.00;97850.22;4963656;28;20426;-60
2024/04/05 02:33:04;;;;;;;73.35;12.52;;;;;;;10.41;100.00;97860.56;4966158;28;20105;-61
2024/04/05 02:35:30;;;;;;;73.85;13.02;;;;;;;10.47;100.00;97868.34;4962832;28;20157;-59
2024/04/05 02:37:55;;;;;;;86.43;12.88;;;;;;;10.58;100.00;97870.06;4967039;28;20089;-60
2024/04/05 02:40:20;;;;;;;88.28;13.45;;;;;;;10.36;100.00;97867.53;4965500;28;20470;-59
2024/04/05 02:42:45;;;;;;;52.38;11.40;;;;;;;10.15;100.00;97866.75;4964927;28;20413;-60
2024/04/05 02:45:11;;;;;;;72.47;13.15;;;;;;;9.99;100.00;97863.34;4966403;28;20400;-58
2024/04/05 02:47:36;;;;;;;71.35;12.30;;;;;;;9.87;100.00;97865.09;4967010;28;20351;-58
2024/04/05 02:50:02;;;;;;;79.30;12.95;;;;;;;9.88;100.00;97865.97;4966085;28;20113;-60
2024/04/05 02:52:28;;;;;;;72.13;11.52;;;;;;;10.32;100.00;97863.22;4963286;28;20049;-59
2024/04/05 02:54:53;;;;;;;82.32;12.50;;;;;;;10.20;100.00;97869.34;4968099;28;20399;-61
2024/04/05 02:57:18;;;;;;;77.55;12.10;;;;;;;10.48;100.00;97875.31;4965634;28;20043;-61
2024/04/05 02:59:44;;;;;;;87.57;13.25;;;;;;;10.58;100.00;97873.50;4965606;28;20065;-62
2024/04/05 03:02:09;;;;;;;90.35;13.48;;;;;;;10.52;100.00;97874.41;4964313;28;20363;-58
2024/04/05 03:04:34;;;;;;;62.20;11.35;;;;;;;10.52;100.00;97864.03;4966260;28;20410;-59
2024/04/05 03:06:59;;;;;;;65.85;12.30;;;;;;;10.66;100.00;97871.72;4965363;28;20054;-60
2024/04/05 03:09:25;;;;;;;100.80;13.57;;;;;;;10.72;100.00;97876.03;4967778;28;20137;-59
2024/04/05 03:11:50;;;;;;;58.50;10.43;;;;;;;10.70;100.00;97876.91;4968909;28;20049;-62
2024/04/05 03:14:15;;;;;;;80.40;13.00;;;;;;;10.61;100.00;97868.28;4967192;28;20031;-59
2024/04/05 03:16:41;;;;;;;84.88;12.15;;;;;;;10.66;100.00;97878.69;4964825;28;20081;-62
2024/04/05 03:19:06;;;;;;;78.20;12.35;;;;;;;10.62;100.00;97880.41;4968439;28;20026;-59
2024/04/05 03:21:32;;;;;;;82.68;12.93;;;;;;;10.52;100.00;97879.63;4965784;28;20427;-60
2024/04/05 03:23:57;;;;;;;88.55;12.90;;;;;;;10.79;100.00;97888.13;4965668;28;20034;-61
2024/04/05 03:26:23;;;;;;;92.72;12.90;;;;;;;10.71;100.00;97891.66;4965834;28;20438;-64
2024/04/05 03:28:48;;;;;;;62.97;10.93;;;;;;;10.91;100.00;97878.53;4966613;28;20027;-59
2024/04/05 03:31:13;;;;;;;98.93;12.88;;;;;;;10.69;100.00;97876.03;4964716;28;20034;-60
2024/04/05 03:33:39;;;;;;;78.55;12.48;;;;;;;10.52;100.00;97878.75;4966012;28;20057;-62
2024/04/05 03:36:05;;;;;;;90.60;12.80;;;;;;;10.57;100.00;97876.97;4968334;28;20601;-61
2024/04/05 03:38:30;;;;;;;91.15;11.82;;;;;;;10.63;100.00;97878.69;4966750;28;20072;-64
2024/04/05 03:40:55;;;;;;;83.82;11.85;;;;;;;10.82;100.00;97879.44;4964797;28;20378;-63
2024/04/05 03:43:21;;;;;;;96.32;12.27;;;;;;;10.99;100.00;97868.91;4965690;28;20113;-62
2024/04/05 03:45:46;;;;;;;65.50;12.10;;;;;;;10.98;100.00;97872.41;4967240;28;20046;-62
2024/04/05 03:48:11;;;;;;;116.22;13.93;;;;;;;11.09;100.00;97879.28;4964792;28;20216;-61
2024/04/05 03:50:37;;;;;;;86.85;14.88;;;;;;;11.16;100.00;97873.13;4963894;28;20400;-59
2024/04/05 03:53:03;;;;;;;62.25;11.82;;;;;;;11.33;100.00;97878.22;4965810;28;20034;-61
2024/04/05 03:55:28;;;;;;;111.03;14.05;;;;;;;11.11;100.00;97882.72;4964939;28;20034;-60
2024/04/05 03:57:53;;;;;;;81.50;12.25;;;;;;;11.33;100.00;97889.50;4965094;28;20068;-61
2024/04/05 04:00:21;;;;;;;113.55;14.40;;;;;;;11.35;100.00;97886.03;4964091;28;20053;-60
2024/04/05 04:02:50;;;;;;;81.35;12.48;;;;;;;11.31;100.00;97890.38;4966232;28;20302;-62
2024/04/05 04:05:16;;;;;;;95.60;14.07;;;;;;;11.22;100.00;97890.47;4966758;28;20038;-60
2024/04/05 04:07:42;;;;;;;64.50;11.00;;;;;;;11.20;100.00;97891.34;4965601;28;20018;-61
2024/04/05 04:10:07;;;;;;;83.50;13.45;;;;;;;11.20;100.00;97882.66;4964079;28;20431;-60
2024/04/05 04:12:32;;;;;;;62.25;12.23;;;;;;;11.25;100.00;97890.44;4962657;28;20046;-60
2024/04/05 04:14:58;;;;;;;65.95;12.00;;;;;;;11.32;100.00;97895.56;4966281;28;20316;-62
2024/04/05 04:17:23;;;;;;;96.18;12.90;;;;;;;11.17;100.00;97893.13;4964869;28;20233;-60
2024/04/05 04:19:49;;;;;;;73.57;12.88;;;;;;;11.23;100.00;97898.25;4965084;28;20030;-61
2024/04/05 04:22:14;;;;;;;87.97;14.10;;;;;;;11.29;100.00;97905.16;4962538;28;20061;-62
2024/04/05 04:24:40;;;;;;;82.57;14.00;;;;;;;10.90;100.00;97906.28;4966117;28;20034;-62
2024/04/05 04:27:07;;;;;;;96.35;14.95;;;;;;;11.31;100.00;97913.81;4967534;28;20089;-62
2024/04/05 04:29:32;;;;;;;70.63;13.65;;;;;;;11.15;100.00;97905.25;4964067;28;20147;-61
2024/04/05 04:31:59;;;;;;;53.28;12.18;;;;;;;11.46;100.00;97915.44;4964715;28;20508;-61
2024/04/05 04:34:24;;;;;;;86.78;14.00;;;;;;;11.46;100.00;97923.25;4966657;28;20027;-61
2024/04/05 04:36:50;;;;;;;56.08;12.90;;;;;;;11.40;100.00;97921.56;4962011;28;20073;-59
2024/04/05 04:39:15;;;;;;;95.70;14.90;;;;;;;10.99;100.00;97926.16;4965383;28;20035;-60
2024/04/05 04:41:40;;;;;;;93.05;14.93;;;;;;;11.17;100.00;97929.56;4961150;28;20054;-61
2024/04/05 04:44:06;;;;;;;64.75;13.15;;;;;;;11.01;100.00;97933.97;4963303;28;20052;-61
2024/04/05 04:46:32;;;;;;;66.57;13.13;;;;;;;11.32;100.00;97929.44;4963610;28;20571;-63
2024/04/05 04:48:58;;;;;;;75.20;13.00;;;;;;;11.42;100.00;97924.16;4965392;28;20728;-58
2024/04/05 04:51:24;;;;;;;88.90;12.77;;;;;;;11.55;100.00;97928.38;4963935;28;20046;-61
2024/04/05 04:53:49;;;;;;;60.58;12.88;;;;;;;11.21;100.00;97933.84;4965013;28;20332;-59
2024/04/05 04:56:16;;;;;;;100.78;15.82;;;;;;;11.22;100.00;97932.09;4962697;28;20092;-60
2024/04/05 04:58:41;;;;;;;66.82;13.32;;;;;;;11.25;100.00;97927.72;4964981;28;20026;-62
2024/04/05 05:01:07;;;;;;;69.57;12.40;;;;;;;11.45;100.00;97927.63;4961609;28;20414;-60
2024/04/05 05:03:33;;;;;;;73.55;15.82;;;;;;;11.65;100.00;97933.53;4963796;28;20160;-63
2024/04/05 05:05:58;;;;;;;59.72;12.02;;;;;;;11.86;100.00;97927.25;4961234;28;20046;-60
2024/04/05 05:08:23;;;;;;;63.72;12.20;;;;;;;11.81;100.00;97931.66;4963549;28;20022;-59
2024/04/05 05:10:49;;;;;;;100.28;15.80;;;;;;;12.03;100.00;97923.63;4963376;28;20388;-60
2024/04/05 05:13:14;;;;;;;95.63;14.02;;;;;;;12.08;100.00;97925.34;4963330;28;20069;-61
2024/04/05 05:15:47;;;;;;;64.32;13.00;;;;;;;12.09;100.00;97924.44;4963000;28;20038;-61
2024/04/05 05:18:13;;;;;;;99.07;13.93;;;;;;;12.15;100.00;97926.13;4963017;28;20410;-60
2024/04/05 05:20:48;;;;;;;71.90;17.50;;;;;;;12.14;100.00;97923.53;4960763;28;20047;-59
2024/04/05 05:23:14;;;;;;;75.05;14.00;;;;;;;12.16;100.00;97924.38;4963493;28;20030;-62
2024/04/05 05:25:42;;;;;;;71.38;14.35;;;;;;;12.02;100.00;97938.38;4963649;28;20077;-62
2024/04/05 05:28:09;;;;;;;78.50;12.50;;;;;;;12.11;100.00;97929.66;4964008;28;20026;-61
2024/04/05 05:30:34;;;;;;;65.90;11.93;;;;;;;12.14;100.00;97928.75;4963152;28;20062;-61
2024/04/05 05:32:59;;;;;;;69.22;11.10;;;;;;;12.15;100.00;97930.47;4962496;28;20399;-60
2024/04/05 05:35:25;;;;;;;82.88;12.07;;;;;;;12.18;100.00;97933.91;4963046;28;20402;-60
2024/04/05 05:37:50;;;;;;;61.38;11.38;;;;;;;12.10;100.00;97935.75;4963640;28;20050;-59
2024/04/05 05:40:15;;;;;;;80.88;13.23;;;;;;;11.95;100.00;97939.34;4961483;28;20039;-61
2024/04/05 05:42:41;;;;;;;66.53;12.27;;;;;;;12.06;100.00;97931.44;4964318;28;20035;-60
2024/04/05 05:45:06;;;;;;;66.03;11.95;;;;;;;12.16;100.00;97924.38;4964620;28;20055;-60
2024/04/05 05:47:31;;;;;;;77.85;13.25;;;;;;;12.15;100.00;97930.47;4964815;28;20392;-60
2024/04/05 05:49:57;;;;;;;79.88;13.70;;;;;;;12.15;100.00;97925.25;4967947;28;20034;-60
2024/04/05 05:52:22;;;;;;;83.13;15.38;;;;;;;12.26;100.00;97922.53;4964751;28;20038;-61
2024/04/05 05:54:47;;;;;;;67.45;13.27;;;;;;;12.22;100.00;97929.53;4967040;28;20030;-60
2024/04/05 05:57:13;;;;;;;65.70;11.90;;;;;;;12.27;100.00;97930.34;4967163;28;20581;-59
2024/04/05 05:59:38;;;;;;;65.32;12.80;;;;;;;12.29;100.00;97932.94;4967551;28;20660;-61
2024/04/05 06:02:04;;;;;;;68.50;11.93;;;;;;;12.42;100.00;97933.66;4968243;28;20034;-60
2024/04/05 06:04:30;;;;;;;73.60;13.38;;;;;;;12.48;100.00;97942.25;4968488;28;20552;-61
2024/04/05 06:06:55;;;;;;;43.75;11.73;;;;;;;12.62;100.00;97938.66;4966911;28;20348;-59
2024/04/05 06:09:24;;;;;;;74.45;14.23;;;;;;;12.55;100.00;97940.44;4966797;28;20092;-60
2024/04/05 06:11:50;;;;;;;61.78;13.18;;;;;;;12.56;100.00;97941.31;4992627;28;20037;-60
2024/04/05 06:14:16;;;;;;;73.30;13.65;;;;;;;12.66;100.00;97934.25;5007269;28;20057;-60
2024/04/05 06:16:41;;;;;;;57.47;13.05;;;;;;;12.62;100.00;97939.50;5006891;28;20164;-63
2024/04/05 06:19:07;;;;;;;75.05;13.93;;;;;;;12.56;100.00;97944.78;5005804;28;20026;-60
2024/04/05 06:21:32;;;;;;;89.93;15.38;;;;;;;12.63;100.00;97936.00;5006396;28;20039;-61
2024/04/05 06:24:01;;;;;;;73.70;14.70;;;;;;;12.58;100.00;97932.59;5007453;28;20021;-61
2024/04/05 06:26:26;;;;;;;82.25;13.98;;;;;;;12.67;100.00;97933.34;5005651;28;20045;-63
2024/04/05 06:28:52;;;;;;;57.08;12.38;;;;;;;12.69;100.00;97936.81;5006643;28;20018;-63
2024/04/05 06:31:17;;;;;;;86.18;13.13;;;;;;;12.87;100.00;97940.91;5004494;28;20232;-61
2024/04/05 06:33:46;;;;;;;69.07;15.13;;;;;;;13.00;100.00;97939.84;5005928;28;20017;-60
2024/04/05 06:36:11;;;;;;;53.97;11.93;;;;;;;13.12;100.00;97945.81;5004055;28;20723;-60
2024/04/05 06:38:36;;;;;;;54.15;11.65;;;;;;;13.26;100.00;97937.78;5004452;28;20497;-61
2024/04/05 06:41:02;;;;;;;79.82;15.00;;;;;;;13.52;100.00;97929.53;5002876;28;20030;-63
2024/04/05 06:43:29;;;;;;;76.55;12.50;;;;;;;13.54;100.00;97922.56;5004754;28;20025;-58
2024/04/05 06:45:58;;;;;;;50.45;11.88;;;;;;;13.88;100.00;97922.88;5005475;28;20599;-61
2024/04/05 06:48:24;;;;;;;98.03;14.77;;;;;;;14.21;100.00;97928.34;5004606;28;20510;-60
2024/04/05 06:50:50;;;;;;;80.38;12.85;;;;;;;14.34;100.00;97918.53;4986609;28;20100;-59
2024/04/05 06:53:20;;;;;;;65.07;12.70;;;;;;;14.88;100.00;97929.66;5006655;28;20044;-61
2024/04/05 06:55:48;;;;;;;53.20;10.80;;;;;;;15.20;100.00;97927.22;5012523;28;20044;-61
2024/04/05 06:58:15;;;;;;;66.38;11.75;;;;;;;15.65;100.00;97925.25;5003836;28;20057;-60
2024/04/05 07:00:41;;;;;;;70.78;10.57;;;;;;;15.84;100.00;97921.28;5002213;28;20397;-61
2024/04/05 07:03:07;;;;;;;55.70;9.40;;;;;;;15.99;100.00;97913.94;5006275;28;20203;-59
2024/04/05 07:05:32;;;;;;;66.10;10.20;;;;;;;16.27;100.00;97914.03;5003771;28;20033;-61
2024/04/05 07:07:58;;;;;;;58.42;9.05;;;;;;;16.11;100.00;97918.84;5005859;28;20475;-61
2024/04/05 07:10:24;;;;;;;72.07;9.10;;;;;;;16.28;100.00;97920.16;5002811;28;20025;-61
2024/04/05 07:12:53;;;;;;;56.33;8.95;;;;;;;16.61;100.00;97914.88;5005867;28;20021;-63
2024/04/05 07:15:21;;;;;;;60.72;8.38;;;;;;;16.22;100.00;97907.22;5005218;28;20064;-62
2024/04/05 07:17:51;;;;;;;58.55;8.48;;;;;;;16.88;100.00;97914.94;5007485;28;20025;-64
2024/04/05 07:20:26;;;;;;;49.38;7.75;;;;;;;16.71;100.00;97912.84;5003613;28;20033;-63
2024/04/05 07:22:53;;;;;;;53.75;7.60;;;;;;;17.10;100.00;97908.19;5004514;28;20064;-61
2024/04/05 07:25:24;;;;;;;56.65;17.10;;;;;;;18.01;100.00;97916.63;5005060;28;20419;-61
2024/04/05 07:27:51;;;;;;;75.85;35.50;;;;;;;18.38;100.00;97914.50;5006960;28;20073;-63
2024/04/05 07:30:22;;;;;;;74.55;8.88;;;;;;;18.82;100.00;97919.88;5002254;28;20030;-60
2024/04/05 07:32:48;;;;;;;48.92;7.40;;;;;;;19.60;100.00;97918.66;5004276;28;20021;-62
2024/04/05 07:35:14;;;;;;;56.45;7.97;;;;;;;20.17;100.00;97912.75;5002806;28;20785;-61
2024/04/05 07:37:39;;;;;;;54.15;7.57;;;;;;;21.05;100.00;97912.38;5002006;28;20091;-61
2024/04/05 07:40:07;;;;;;;56.70;14.13;;;;;;;23.37;100.00;97908.41;5003404;28;20025;-61
2024/04/05 07:42:34;;;;;;;66.07;10.90;;;;;;;24.76;100.00;97897.53;5004650;28;20038;-61
2024/04/05 07:45:00;;;;;;;46.10;10.10;;;;;;;27.14;98.57;97904.75;5005404;28;20295;-63
2024/04/05 07:47:26;;;;;;;68.40;12.55;;;;;;;27.31;81.02;97901.81;5002591;28;20586;-62
2024/04/05 07:49:52;;;;;;;48.33;12.40;;;;;;;26.17;80.85;97902.63;5005590;28;20465;-63
2024/04/05 07:52:17;;;;;;;60.60;20.20;;;;;;;26.61;75.86;97905.81;5002862;28;20572;-62
2024/04/05 07:54:43;;;;;;;41.55;12.35;;;;;;;28.16;74.44;97906.13;5002736;28;20033;-63
2024/04/05 07:57:08;;;;;;;40.17;11.68;;;;;;;26.79;77.12;97900.13;5002371;28;20053;-62
2024/04/05 07:59:36;;;;;;;69.68;15.10;;;;;;;28.04;67.37;97901.72;5002695;28;20616;-64
2024/04/05 08:02:01;;;;;;;41.00;12.80;;;;;;;30.76;56.26;97897.47;5004391;28;20052;-64
2024/04/05 08:04:27;;;;;;;50.13;12.35;;;;;;;30.12;52.43;97899.38;5004047;28;20033;-61
2024/04/05 08:06:57;;;;;;;44.00;11.65;;;;;;;29.82;50.96;97901.91;5003518;28;20186;-64
2024/04/05 08:09:23;;;;;;;49.00;12.27;;;;;;;32.69;44.52;97902.41;5004230;28;20113;-61
2024/04/05 08:11:48;;;;;;;34.30;10.00;;;;;;;29.82;47.99;97899.22;5002027;28;20099;-61
2024/04/05 08:14:14;;;;;;;41.47;11.38;;;;;;;32.57;44.73;97891.81;5007228;28;20025;-60
2024/04/05 08:16:39;;;;;;;31.13;9.80;;;;;;;30.98;45.72;97892.06;5002654;28;20519;-62
2024/04/05 08:19:04;;;;;;;35.58;14.38;;;;;;;31.36;42.94;97895.78;5004373;28;20029;-60
2024/04/05 08:21:29;;;;;;;42.80;12.02;;;;;;;31.44;44.91;97890.56;4999912;28;20033;-59
2024/04/05 08:23:55;;;;;;;39.28;10.63;;;;;;;30.05;45.80;97887.50;5002883;28;20029;-62
2024/04/05 08:26:20;;;;;;;36.33;11.95;;;;;;;30.11;50.31;97892.34;5002673;28;20102;-61
2024/04/05 08:28:45;;;;;;;39.90;11.63;;;;;;;29.79;50.03;97890.59;5004273;28;20287;-63
2024/04/05 08:31:11;;;;;;;50.25;12.98;;;;;;;28.52;56.27;97887.34;5001953;28;20430;-62
2024/04/05 08:33:37;;;;;;;53.03;11.80;;;;;;;26.47;64.58;97885.47;5002939;28;20022;-63
2024/04/05 08:36:02;;;;;;;54.33;12.00;;;;;;;27.49;62.39;97888.88;5004114;28;20065;-60
2024/04/05 08:38:27;;;;;;;57.10;12.77;;;;;;;27.39;70.95;97888.75;5003563;28;20556;-59
2024/04/05 08:40:53;;;;;;;51.67;12.25;;;;;;;27.67;65.79;97882.22;5002537;28;20033;-62
2024/04/05 08:43:20;;;;;;;98.72;56.58;;;;;;;27.33;57.17;97875.84;5005498;28;20033;-61
2024/04/05 08:45:46;;;;;;;41.97;11.82;;;;;;;28.47;54.87;97873.50;5003912;28;20036;-60
2024/04/05 08:48:12;;;;;;;53.08;16.48;;;;;;;29.19;53.97;97876.69;5001214;28;20034;-62
2024/04/05 08:50:38;;;;;;;55.88;13.75;;;;;;;29.64;52.06;97876.66;5000376;28;20069;-60
2024/04/05 08:53:08;;;;;;;47.13;13.23;;;;;;;28.23;52.83;97871.72;5002290;28;20449;-63
2024/04/05 08:55:35;;;;;;;55.58;11.25;;;;;;;27.97;50.28;97879.97;5003519;28;20038;-60
2024/04/05 08:58:00;;;;;;;42.80;11.93;;;;;;;28.02;56.22;97884.97;5003841;28;20180;-61
2024/04/05 09:00:26;;;;;;;53.63;11.73;;;;;;;28.98;50.75;97893.53;5001526;28;20029;-61
2024/04/05 09:02:52;;;;;;;38.85;10.00;;;;;;;29.04;47.88;97892.16;5003406;28;20481;-60
2024/04/05 09:05:19;;;;;;;48.85;10.70;;;;;;;28.85;50.93;97879.41;5001964;28;20541;-61
2024/04/05 09:07:44;;;;;;;33.47;10.13;;;;;;;30.37;45.04;97874.03;5002862;28;20060;-65
2024/04/05 09:10:16;;;;;;;41.95;11.65;;;;;;;32.89;40.05;97880.75;5001313;28;20025;-63
2024/04/05 09:12:53;;;;;;;40.42;10.65;;;;;;;33.28;36.83;97868.91;5001774;28;20056;-61
2024/04/05 09:15:24;;;;;;;40.25;10.40;;;;;;;32.76;38.64;97865.78;5004193;28;20026;-61
2024/04/05 09:17:49;;;;;;;32.00;9.60;;;;;;;31.23;41.64;97866.50;5002084;28;20033;-61
2024/04/05 09:20:25;;;;;;;49.45;10.70;;;;;;;34.04;37.06;97866.66;5002456;28;20215;-60
2024/04/05 09:23:04;;;;;;;25.65;8.02;;;;;;;31.43;40.65;97861.13;5004288;28;20030;-59
2024/04/05 09:25:30;;;;;;;68.85;12.52;;;;;;;33.47;39.06;97863.34;5001921;28;20056;-62
2024/04/05 09:28:16;;;;;;;44.85;8.50;;;;;;;32.14;37.49;97866.31;5002357;28;20029;-62
2024/04/05 09:30:43;;;;;;;56.50;9.55;;;;;;;32.67;37.45;97864.84;4999372;28;21433;-63
2024/04/05 09:33:17;;;;;;;44.97;8.23;;;;;;;30.46;39.47;97861.63;5001521;28;20088;-60
2024/04/05 09:35:44;;;;;;;40.92;7.82;;;;;;;31.50;38.00;97859.59;5000973;28;20112;-60
2024/04/05 09:38:10;;;;;;;40.00;7.78;;;;;;;31.52;37.42;97860.31;5004532;28;20056;-64
2024/04/05 09:40:38;;;;;;;41.78;8.25;;;;;;;31.61;37.93;97857.75;5001542;28;20049;-63
2024/04/05 09:43:05;;;;;;;44.60;9.32;;;;;;;33.23;36.64;97853.19;5004646;28;20221;-62
2024/04/05 09:45:31;;;;;;;58.42;10.48;;;;;;;31.55;38.81;97849.25;5000907;28;20033;-62
2024/04/05 09:47:57;;;;;;;40.95;8.93;;;;;;;32.44;37.61;97854.47;5002839;28;20048;-63
2024/04/05 09:50:23;;;;;;;44.00;8.93;;;;;;;31.01;39.26;97851.47;5001067;28;20034;-63
2024/04/05 09:52:55;;;;;;;39.80;8.80;;;;;;;32.68;38.54;97844.16;5002837;28;20026;-63
2024/04/05 09:55:28;;;;;;;42.45;10.50;;;;;;;31.32;37.84;97845.19;5004002;28;20047;-64
2024/04/05 09:57:55;;;;;;;41.30;9.10;;;;;;;30.61;40.05;97847.84;5003639;28;20419;-65
2024/04/05 10:00:23;;;;;;;42.45;9.32;;;;;;;30.98;38.65;97841.03;5000301;28;20026;-63
2024/04/05 10:02:51;;;;;;;43.00;9.07;;;;;;;29.31;40.35;97829.28;5002065;28;20034;-62
2024/04/05 10:05:45;;;;;;;58.78;9.18;;;;;;;29.59;39.90;97839.53;5002129;28;20242;-63
2024/04/05 10:08:13;;;;;;;48.70;8.93;;;;;;;31.91;37.32;97840.59;5001321;28;20437;-62
2024/04/05 10:10:39;;;;;;;60.75;10.25;;;;;;;31.17;38.25;97841.03;5000566;28;20088;-64
2024/04/05 10:13:16;;;;;;;44.05;7.68;;;;;;;29.43;39.84;97832.75;5003181;28;20026;-63
2024/04/05 10:15:54;;;;;;;73.07;11.38;;;;;;;30.23;38.28;97824.25;5000288;28;20042;-61
2024/04/05 10:18:27;;;;;;;51.05;16.40;;;;;;;29.56;40.47;97810.31;5004059;28;20080;-60
2024/04/05 10:21:00;;;;;;;67.20;10.25;;;;;;;28.70;42.13;97815.47;5001456;28;20037;-62
2024/04/05 10:23:26;;;;;;;44.97;10.02;;;;;;;30.21;39.12;97809.28;5001404;28;20479;-61
2024/04/05 10:25:52;;;;;;;37.75;8.55;;;;;;;29.90;40.08;97817.31;4999105;28;20368;-62
2024/04/05 10:28:21;;;;;;;50.70;9.60;;;;;;;30.36;39.59;97815.13;4998770;28;20030;-62
2024/04/05 10:30:47;;;;;;;61.00;11.05;;;;;;;28.82;42.18;97818.09;4999056;28;20453;-64
2024/04/05 10:33:19;;;;;;;50.03;9.73;;;;;;;26.90;49.69;97814.81;5002246;28;20603;-62
2024/04/05 10:35:46;;;;;;;47.38;11.50;;;;;;;26.20;52.92;97817.09;5003036;28;20041;-60
2024/04/05 10:38:12;;;;;;;59.28;12.10;;;;;;;25.72;50.29;97810.63;5005613;28;20124;-63
2024/04/05 10:40:38;;;;;;;70.90;13.55;;;;;;;25.89;54.18;97816.59;5001804;28;20496;-61
2024/04/05 10:43:11;;;;;;;56.45;10.68;;;;;;;24.99;53.08;97822.56;5004423;28;20457;-61
2024/04/05 10:45:38;;;;;;;84.82;13.27;;;;;;;25.30;54.21;97817.88;5003158;28;20068;-62
2024/04/05 10:48:04;;;;;;;56.42;11.93;;;;;;;25.67;54.86;97819.88;5005481;28;20274;-62
2024/04/05 10:50:30;;;;;;;67.32;11.98;;;;;;;25.92;53.80;97818.19;5002560;28;20025;-61
2024/04/05 10:52:55;;;;;;;43.97;10.68;;;;;;;25.63;59.22;97802.41;5003878;28;20026;-60
2024/04/05 10:55:22;;;;;;;52.15;12.15;;;;;;;25.35;60.06;97805.13;5003843;28;20548;-61
2024/04/05 10:57:47;;;;;;;44.50;8.88;;;;;;;26.35;52.84;97804.53;5005425;28;20787;-60
2024/04/05 11:00:14;;;;;;;61.83;18.58;;;;;;;26.21;50.35;97801.97;5003355;28;20041;-60
2024/04/05 11:02:40;;;;;;;110.32;47.72;;;;;;;26.63;51.28;97791.03;5002846;28;20171;-60
2024/04/05 11:05:13;;;;;;;64.80;11.38;;;;;;;27.77;44.36;97788.84;5004333;28;20424;-60
2024/04/05 11:07:41;;;;;;;49.33;11.45;;;;;;;28.91;42.00;97781.75;5002084;28;20022;-62
2024/04/05 11:10:13;;;;;;;56.78;9.45;;;;;;;28.04;43.66;97773.44;5004635;28;20029;-60